TimeEDT,TemperatureF,Dew PointF,Humidity,Sea Level PressureIn,VisibilityMPH,Wind Direction,Wind SpeedMPH,Gust SpeedMPH,PrecipitationIn,Events,Conditions,WindDirDegrees,DateUTC
12:15 AM,28.4,22.6,79,29.82,10.0,SSW,5.8,-,N/A,,Overcast,210,2014-03-14 04:15:00
12:35 AM,28.6,23.2,80,29.81,10.0,SSW,5.8,-,N/A,,Overcast,200,2014-03-14 04:35:00
12:55 AM,28.4,23.0,80,29.80,10.0,South,5.8,-,N/A,,Overcast,190,2014-03-14 04:55:00
1:15 AM,29.3,24.6,83,29.79,10.0,SSW,8.1,-,N/A,,Overcast,200,2014-03-14 05:15:00
1:35 AM,30.2,25.2,82,29.78,10.0,South,6.9,-,N/A,,Overcast,190,2014-03-14 05:35:00
1:55 AM,29.3,24.4,82,29.77,10.0,SSW,5.8,-,N/A,,Overcast,200,2014-03-14 05:55:00
2:15 AM,29.3,24.1,81,29.76,10.0,South,6.9,-,N/A,,Overcast,170,2014-03-14 06:15:00
2:35 AM,28.6,24.1,83,29.75,10.0,South,5.8,-,N/A,,Overcast,170,2014-03-14 06:35:00
2:55 AM,29.1,24.8,84,29.74,7.0,South,5.8,-,N/A,,Mostly Cloudy,170,2014-03-14 06:55:00
3:15 AM,29.3,25.3,85,29.73,7.0,South,6.9,-,N/A,,Overcast,180,2014-03-14 07:15:00
3:35 AM,28.4,24.8,86,29.72,7.0,SSE,5.8,-,N/A,,Mostly Cloudy,150,2014-03-14 07:35:00
3:55 AM,28.0,24.4,86,29.70,7.0,SSE,6.9,-,N/A,,Mostly Cloudy,150,2014-03-14 07:55:00
4:15 AM,27.3,23.9,87,29.69,7.0,SE,6.9,-,N/A,,Scattered Clouds,140,2014-03-14 08:15:00
4:35 AM,28.0,26.1,92,29.67,7.0,SSE,5.8,-,N/A,,Clear,160,2014-03-14 08:35:00
4:55 AM,28.0,25.9,92,29.66,7.0,SE,6.9,-,N/A,,Clear,140,2014-03-14 08:55:00
5:15 AM,26.8,25.0,93,29.65,7.0,SE,6.9,-,N/A,,Clear,140,2014-03-14 09:15:00
5:35 AM,27.3,26.6,97,29.64,7.0,SSE,6.9,-,N/A,,Clear,160,2014-03-14 09:35:00
5:55 AM,30.0,28.4,94,29.62,7.0,South,6.9,-,N/A,,Clear,180,2014-03-14 09:55:00
6:14 AM,31.1,27.5,87,29.61,7.0,South,8.1,-,N/A,,Clear,180,2014-03-14 10:14:00
6:35 AM,31.6,27.7,85,29.60,10.0,SSE,5.8,-,N/A,,Clear,160,2014-03-14 10:35:00
6:55 AM,29.8,27.3,90,29.59,7.0,South,6.9,-,N/A,,Clear,190,2014-03-14 10:55:00
7:14 AM,32.0,28.0,85,29.58,10.0,South,5.8,-,N/A,,Clear,180,2014-03-14 11:14:00
7:35 AM,33.6,28.9,83,29.56,10.0,South,6.9,-,N/A,,Clear,180,2014-03-14 11:35:00
7:54 AM,33.3,28.2,82,29.55,10.0,South,5.8,-,N/A,,Clear,170,2014-03-14 11:54:00
8:15 AM,29.7,26.6,88,29.55,5.0,SE,6.9,-,N/A,,Scattered Clouds,140,2014-03-14 12:15:00
8:35 AM,34.5,29.5,82,29.53,10.0,SSW,10.4,16.1,N/A,,Scattered Clouds,200,2014-03-14 12:35:00
8:54 AM,36.3,29.3,76,29.53,10.0,SW,8.1,-,N/A,,Scattered Clouds,220,2014-03-14 12:54:00
9:15 AM,37.9,29.7,72,29.52,10.0,SW,10.4,17.3,N/A,,Clear,220,2014-03-14 13:15:00
9:34 AM,39.2,29.7,69,29.51,10.0,SW,12.7,19.6,N/A,,Clear,220,2014-03-14 13:34:00
9:55 AM,40.5,29.7,65,29.51,10.0,SW,15.0,26.5,N/A,,Mostly Cloudy,220,2014-03-14 13:55:00
10:15 AM,41.0,29.5,64,29.51,10.0,WSW,16.1,23.0,N/A,,Overcast,240,2014-03-14 14:15:00
10:35 AM,42.4,29.1,59,29.50,10.0,SW,18.4,29.9,N/A,,Mostly Cloudy,230,2014-03-14 14:35:00
10:55 AM,42.4,29.1,59,29.50,10.0,SW,18.4,28.8,N/A,,Mostly Cloudy,230,2014-03-14 14:55:00
11:15 AM,43.0,28.9,58,29.49,10.0,SW,19.6,26.5,N/A,,Scattered Clouds,230,2014-03-14 15:15:00
11:35 AM,43.3,28.8,56,29.48,10.0,WSW,21.9,26.5,N/A,,Scattered Clouds,240,2014-03-14 15:35:00
11:55 AM,43.9,28.6,55,29.48,10.0,WSW,20.7,32.2,N/A,,Scattered Clouds,240,2014-03-14 15:55:00
12:14 PM,44.6,28.4,53,29.48,10.0,WSW,24.2,32.2,N/A,,Scattered Clouds,240,2014-03-14 16:14:00
12:35 PM,44.1,28.4,54,29.47,10.0,WSW,24.2,28.8,N/A,,Scattered Clouds,240,2014-03-14 16:35:00
12:55 PM,44.1,28.4,54,29.47,10.0,WSW,21.9,31.1,N/A,,Scattered Clouds,240,2014-03-14 16:55:00
1:14 PM,44.6,28.2,53,29.47,10.0,WSW,18.4,31.1,N/A,,Clear,240,2014-03-14 17:14:00
1:35 PM,44.4,28.6,54,29.46,10.0,WSW,16.1,26.5,N/A,,Scattered Clouds,240,2014-03-14 17:35:00
1:55 PM,44.4,28.6,54,29.46,10.0,SW,16.1,24.2,N/A,,Scattered Clouds,230,2014-03-14 17:55:00
2:15 PM,45.5,28.4,51,29.45,10.0,WSW,16.1,25.3,N/A,,Clear,240,2014-03-14 18:15:00
2:35 PM,45.5,28.6,52,29.45,10.0,WSW,19.6,26.5,N/A,,Mostly Cloudy,250,2014-03-14 18:35:00
2:55 PM,44.6,28.9,54,29.45,10.0,WSW,16.1,31.1,N/A,,Overcast,250,2014-03-14 18:55:00
3:15 PM,43.7,29.7,58,29.45,10.0,West,18.4,29.9,N/A,,Overcast,260,2014-03-14 19:15:00
3:35 PM,40.6,32.4,72,29.46,10.0,West,9.2,19.6,N/A,Rain,Light Rain,260,2014-03-14 19:35:00
3:55 PM,41.7,32.9,71,29.46,10.0,WSW,13.8,17.3,N/A,,Mostly Cloudy,250,2014-03-14 19:55:00
4:15 PM,42.4,32.0,67,29.45,10.0,SW,8.1,-,N/A,Rain,Light Rain,230,2014-03-14 20:15:00
4:35 PM,43.2,31.5,63,29.46,10.0,WSW,13.8,18.4,N/A,,Mostly Cloudy,240,2014-03-14 20:35:00
4:54 PM,43.2,30.7,62,29.46,10.0,WSW,12.7,23.0,N/A,,Clear,240,2014-03-14 20:54:00
5:15 PM,43.7,30.7,60,29.47,10.0,WSW,15.0,25.3,N/A,,Clear,240,2014-03-14 21:15:00
5:35 PM,43.5,30.9,61,29.48,10.0,WSW,15.0,21.9,N/A,,Scattered Clouds,250,2014-03-14 21:35:00
5:54 PM,44.2,30.9,60,29.48,10.0,West,19.6,28.8,N/A,,Mostly Cloudy,260,2014-03-14 21:54:00
6:15 PM,44.1,31.1,60,29.49,10.0,West,12.7,23.0,N/A,,Mostly Cloudy,270,2014-03-14 22:15:00
6:35 PM,43.7,31.1,61,29.50,10.0,West,13.8,25.3,N/A,,Scattered Clouds,270,2014-03-14 22:35:00
6:54 PM,43.7,31.1,61,29.52,10.0,West,9.2,20.7,N/A,,Overcast,280,2014-03-14 22:54:00
7:15 PM,42.6,30.2,61,29.53,10.0,West,19.6,28.8,N/A,,Overcast,280,2014-03-14 23:15:00
7:35 PM,41.5,30.4,65,29.54,10.0,West,18.4,27.6,N/A,,Overcast,280,2014-03-14 23:35:00
7:54 PM,40.3,30.2,67,29.55,10.0,West,18.4,27.6,N/A,,Mostly Cloudy,280,2014-03-14 23:54:00
8:15 PM,39.4,30.2,70,29.57,10.0,WNW,15.0,26.5,N/A,,Mostly Cloudy,290,2014-03-15 00:15:00
8:35 PM,38.5,29.8,71,29.58,10.0,WNW,13.8,24.2,N/A,,Overcast,290,2014-03-15 00:35:00
8:55 PM,38.3,29.8,72,29.59,10.0,West,12.7,19.6,N/A,,Overcast,280,2014-03-15 00:55:00
9:15 PM,38.3,29.7,71,29.60,10.0,West,11.5,20.7,N/A,,Overcast,280,2014-03-15 01:15:00
9:35 PM,37.9,30.2,74,29.61,10.0,West,11.5,16.1,N/A,,Overcast,280,2014-03-15 01:35:00
9:55 PM,37.4,31.1,78,29.62,7.0,West,8.1,20.7,N/A,,Overcast,280,2014-03-15 01:55:00
10:15 PM,37.0,31.3,80,29.63,10.0,West,9.2,18.4,N/A,,Overcast,280,2014-03-15 02:15:00
10:35 PM,37.2,30.7,77,29.64,10.0,West,12.7,18.4,N/A,,Overcast,270,2014-03-15 02:35:00
10:55 PM,37.4,30.7,77,29.64,10.0,West,16.1,-,N/A,,Overcast,270,2014-03-15 02:55:00
11:15 PM,37.2,30.9,78,29.65,10.0,West,10.4,-,N/A,,Overcast,260,2014-03-15 03:15:00
11:34 PM,36.9,30.9,79,29.65,10.0,West,9.2,-,N/A,,Overcast,270,2014-03-15 03:34:00
11:55 PM,36.7,31.1,80,29.66,10.0,West,11.5,-,N/A,Snow,Light Snow,270,2014-03-15 03:55:00